createdAt,value
2022-07-30T00:00:25.919Z,9.84
2022-07-30T00:01:57.378Z,11.46
2022-07-30T00:03:28.871Z,9.81
2022-07-30T00:05:00.392Z,13.18
2022-07-30T00:06:34.187Z,12.13
2022-07-30T00:08:05.634Z,10.96
2022-07-30T00:09:37.018Z,11.49
2022-07-30T00:11:08.505Z,9.87
2022-07-30T00:12:40.216Z,10.94
2022-07-30T00:14:11.673Z,10.91
2022-07-30T00:15:43.144Z,9.91
2022-07-30T00:17:14.561Z,11.77
2022-07-30T00:18:51.711Z,10.42
2022-07-30T00:20:23.956Z,9.78
2022-07-30T00:22:04.405Z,12.25
2022-07-30T00:23:35.764Z,11.98
2022-07-30T00:25:07.229Z,12.25
2022-07-30T00:26:38.882Z,13.38
2022-07-30T00:28:10.265Z,13.14
2022-07-30T00:29:44.950Z,10.39
2022-07-30T00:31:16.631Z,12.26
2022-07-30T00:32:48.196Z,11.43
2022-07-30T00:34:19.738Z,12.32
2022-07-30T00:35:51.089Z,9.84
2022-07-30T00:37:22.734Z,13.45
2022-07-30T00:38:54.106Z,8.87
2022-07-30T00:40:26.152Z,9.93
2022-07-30T00:41:57.655Z,10.42
2022-07-30T00:43:29.086Z,10.86
2022-07-30T00:45:00.817Z,11.20
2022-07-30T00:46:32.163Z,10.93
2022-07-30T00:48:03.655Z,11.10
2022-07-30T00:49:35.007Z,10.43
2022-07-30T00:51:06.436Z,10.45
2022-07-30T00:52:38.334Z,10.35
2022-07-30T00:54:10.042Z,10.40
2022-07-30T00:55:41.470Z,9.87
2022-07-30T00:57:12.978Z,9.94
2022-07-30T00:58:44.738Z,14.14
2022-07-30T01:00:16.139Z,17.02
2022-07-30T01:01:47.976Z,14.75
2022-07-30T01:03:19.468Z,14.44
2022-07-30T01:04:51.286Z,10.80
2022-07-30T01:06:24.378Z,10.44
2022-07-30T01:07:56.164Z,9.63
2022-07-30T01:09:27.537Z,12.00
2022-07-30T01:10:59.106Z,12.10
2022-07-30T01:12:30.634Z,12.17
2022-07-30T01:14:02.323Z,12.41
2022-07-30T01:15:33.655Z,12.68
2022-07-30T01:17:05.003Z,13.48
2022-07-30T01:18:36.540Z,12.88
2022-07-30T01:20:08.067Z,10.39
2022-07-30T01:21:49.977Z,12.42
2022-07-30T01:23:21.369Z,11.89
2022-07-30T01:24:53.335Z,13.15
2022-07-30T01:26:25.116Z,12.55
2022-07-30T01:27:56.861Z,13.00
2022-07-30T01:29:28.238Z,12.74
2022-07-30T01:30:59.680Z,10.53
2022-07-30T01:32:31.414Z,10.93
2022-07-30T01:34:02.915Z,10.63
2022-07-30T01:35:34.290Z,10.09
2022-07-30T01:37:05.596Z,10.30
2022-07-30T01:38:37.005Z,12.46
2022-07-30T01:40:08.506Z,10.88
2022-07-30T01:41:45.083Z,11.81
2022-07-30T01:43:16.515Z,12.20
2022-07-30T01:44:48.027Z,10.51
2022-07-30T01:46:19.471Z,12.11
2022-07-30T01:47:51.078Z,10.51
2022-07-30T01:49:22.758Z,12.75
2022-07-30T01:50:54.223Z,12.10
2022-07-30T01:52:25.668Z,11.34
2022-07-30T01:53:57.303Z,12.68
2022-07-30T01:55:30.119Z,14.35
2022-07-30T01:57:02.062Z,11.86
2022-07-30T01:58:33.701Z,13.59
2022-07-30T02:00:05.108Z,12.01
2022-07-30T02:01:36.539Z,11.13
2022-07-30T02:03:07.936Z,13.43
2022-07-30T02:04:39.289Z,13.73
2022-07-30T02:06:10.782Z,14.16
2022-07-30T02:07:42.114Z,13.16
2022-07-30T02:09:13.410Z,10.93
2022-07-30T02:10:44.913Z,11.14
2022-07-30T02:12:16.295Z,11.44
2022-07-30T02:13:52.714Z,12.33
2022-07-30T02:15:24.194Z,11.49
2022-07-30T02:16:55.584Z,11.58
2022-07-30T02:18:26.949Z,11.17
2022-07-30T02:19:58.588Z,11.50
2022-07-30T02:21:36.714Z,11.67
2022-07-30T02:23:08.591Z,10.82
2022-07-30T02:24:39.980Z,10.74
2022-07-30T02:26:11.374Z,11.78
2022-07-30T02:27:43.056Z,13.22
2022-07-30T02:29:14.462Z,13.18
2022-07-30T02:30:45.851Z,12.24
2022-07-30T02:32:17.165Z,12.07
2022-07-30T02:33:49.027Z,11.11
2022-07-30T02:35:20.629Z,12.45
2022-07-30T02:36:52.162Z,13.08
2022-07-30T02:38:23.664Z,12.52
2022-07-30T02:39:55.068Z,12.42
2022-07-30T02:41:31.488Z,11.67
2022-07-30T02:43:03.180Z,11.14
2022-07-30T02:44:34.537Z,12.67
2022-07-30T02:46:05.820Z,12.48
2022-07-30T02:47:37.263Z,11.54
2022-07-30T02:49:08.590Z,11.46
2022-07-30T02:50:40.310Z,11.12
2022-07-30T02:52:11.783Z,11.31
2022-07-30T02:53:43.083Z,11.99
2022-07-30T02:55:14.404Z,11.81
2022-07-30T02:56:45.817Z,11.65
2022-07-30T02:58:17.464Z,10.28
2022-07-30T02:59:48.974Z,10.26
2022-07-30T03:01:20.417Z,13.76
2022-07-30T03:02:51.999Z,12.04
2022-07-30T03:04:28.116Z,12.80
2022-07-30T03:06:04.550Z,13.38
2022-07-30T03:07:36.222Z,12.93
2022-07-30T03:09:07.719Z,13.81
2022-07-30T03:10:39.050Z,13.83
2022-07-30T03:12:10.449Z,12.01
2022-07-30T03:13:47.239Z,13.35
2022-07-30T03:15:18.709Z,15.56
2022-07-30T03:16:50.078Z,10.53
2022-07-30T03:18:21.523Z,11.00
2022-07-30T03:19:52.839Z,11.38
2022-07-30T03:21:24.557Z,12.82
2022-07-30T03:22:56.498Z,13.68
2022-07-30T03:24:27.839Z,11.86
2022-07-30T03:25:59.436Z,13.64
2022-07-30T03:27:30.966Z,14.61
2022-07-30T03:29:02.448Z,12.31
2022-07-30T03:30:33.954Z,11.54
2022-07-30T03:32:05.431Z,11.51
2022-07-30T03:33:39.213Z,13.75
2022-07-30T03:35:17.032Z,12.12
2022-07-30T03:36:49.132Z,14.19
2022-07-30T03:38:20.669Z,12.64
2022-07-30T03:39:52.476Z,15.01
2022-07-30T03:41:23.843Z,13.03
2022-07-30T03:42:55.354Z,10.54
2022-07-30T03:44:26.981Z,16.46
2022-07-30T03:45:58.479Z,12.15
2022-07-30T03:47:29.994Z,13.03
2022-07-30T03:49:01.376Z,14.56
2022-07-30T03:50:32.812Z,12.67
2022-07-30T03:52:04.178Z,13.95
2022-07-30T03:53:35.795Z,14.08
2022-07-30T03:55:07.240Z,12.65
2022-07-30T03:56:38.558Z,12.79
2022-07-30T03:58:09.951Z,12.32
2022-07-30T03:59:41.337Z,15.56
2022-07-30T04:01:12.768Z,13.84
2022-07-30T04:02:44.230Z,12.32
2022-07-30T04:04:15.842Z,12.12
2022-07-30T04:05:47.113Z,11.02
2022-07-30T04:07:18.523Z,13.03
2022-07-30T04:08:50.044Z,11.53
2022-07-30T04:10:21.469Z,14.64
2022-07-30T04:11:52.959Z,11.73
2022-07-30T04:13:24.364Z,14.70
2022-07-30T04:14:55.818Z,14.73
2022-07-30T04:16:39.362Z,14.84
2022-07-30T04:18:13.171Z,14.16
2022-07-30T04:19:44.611Z,14.98
2022-07-30T04:21:17.370Z,12.22
2022-07-30T04:22:48.944Z,13.41
2022-07-30T04:24:20.414Z,12.17
2022-07-30T04:25:52.097Z,12.29
2022-07-30T04:27:23.763Z,14.37
2022-07-30T04:28:55.095Z,13.81
2022-07-30T04:30:26.442Z,15.50
2022-07-30T04:31:57.833Z,12.65
2022-07-30T04:33:29.215Z,11.97
2022-07-30T04:35:00.869Z,12.12
2022-07-30T04:36:32.177Z,12.25
2022-07-30T04:38:03.491Z,15.81
2022-07-30T04:39:34.825Z,16.48
2022-07-30T04:41:06.200Z,13.29
2022-07-30T04:42:37.498Z,11.92
2022-07-30T04:44:08.840Z,13.46
2022-07-30T04:45:40.122Z,12.25
2022-07-30T04:47:11.651Z,14.56
2022-07-30T04:48:43.230Z,12.95
2022-07-30T04:50:19.600Z,15.12
2022-07-30T04:51:50.980Z,15.12
2022-07-30T04:53:22.279Z,13.44
2022-07-30T04:54:54.878Z,14.63
2022-07-30T04:56:26.257Z,14.67
2022-07-30T04:57:57.687Z,13.84
2022-07-30T04:59:29.145Z,15.11
2022-07-30T05:01:00.823Z,16.67
2022-07-30T05:02:32.435Z,12.21
2022-07-30T05:04:03.674Z,14.95
2022-07-30T05:05:35.199Z,14.08
2022-07-30T05:07:06.600Z,16.39
2022-07-30T05:08:38.132Z,18.84
2022-07-30T05:10:10.629Z,16.47
2022-07-30T05:11:41.954Z,15.46
2022-07-30T05:13:13.249Z,15.92
2022-07-30T05:14:48.215Z,13.28
2022-07-30T05:16:20.288Z,17.00
2022-07-30T05:17:52.973Z,16.46
2022-07-30T05:19:24.934Z,14.68
2022-07-30T05:20:56.260Z,18.33
2022-07-30T05:22:32.682Z,16.16
2022-07-30T05:24:04.176Z,15.51
2022-07-30T05:25:35.773Z,14.53
2022-07-30T05:27:07.223Z,18.64
2022-07-30T05:28:38.852Z,17.67
2022-07-30T05:30:11.733Z,18.44
2022-07-30T05:31:44.413Z,16.44
2022-07-30T05:33:21.686Z,16.48
2022-07-30T05:35:12.802Z,15.19
2022-07-30T05:36:44.231Z,16.05
2022-07-30T05:38:15.707Z,17.63
2022-07-30T05:39:58.804Z,16.16
2022-07-30T05:41:35.296Z,15.93
2022-07-30T05:43:06.899Z,16.12
2022-07-30T05:44:43.331Z,18.07
2022-07-30T05:46:14.751Z,17.47
2022-07-30T05:47:46.149Z,19.34
2022-07-30T05:49:17.608Z,17.31
2022-07-30T05:50:49.093Z,21.92
2022-07-30T05:52:20.593Z,21.30
2022-07-30T05:53:51.939Z,19.25
2022-07-30T05:55:23.547Z,21.51
2022-07-30T05:56:55.008Z,17.15
2022-07-30T05:58:26.644Z,17.67
2022-07-30T05:59:58.089Z,20.37
2022-07-30T06:01:34.726Z,19.04
2022-07-30T06:03:09.271Z,19.74
2022-07-30T06:04:46.219Z,19.46
2022-07-30T06:06:22.711Z,18.72
2022-07-30T06:07:54.809Z,22.82
2022-07-30T06:09:36.203Z,27.09
2022-07-30T06:11:08.574Z,22.87
2022-07-30T06:12:42.738Z,22.21
2022-07-30T06:14:14.147Z,22.37
2022-07-30T06:15:45.761Z,26.20
2022-07-30T06:17:18.403Z,28.16
2022-07-30T06:18:49.770Z,27.65
2022-07-30T06:20:21.384Z,29.81
2022-07-30T06:22:01.772Z,25.77
2022-07-30T06:23:38.822Z,28.43
2022-07-30T06:25:10.263Z,28.46
2022-07-30T06:26:52.638Z,30.09
2022-07-30T06:28:37.036Z,30.54
2022-07-30T06:30:09.326Z,27.59
2022-07-30T06:31:40.842Z,28.33
2022-07-30T06:33:12.631Z,27.42
2022-07-30T06:34:43.999Z,29.46
2022-07-30T06:36:15.555Z,32.01
2022-07-30T06:38:06.894Z,29.39
2022-07-30T06:39:57.822Z,28.52
2022-07-30T06:41:31.197Z,31.52
2022-07-30T06:43:02.503Z,31.00
2022-07-30T06:44:34.947Z,32.17
2022-07-30T06:46:06.389Z,33.29
2022-07-30T06:47:37.846Z,39.06
2022-07-30T06:49:09.292Z,35.12
2022-07-30T06:50:40.697Z,36.82
2022-07-30T06:52:16.953Z,38.07
2022-07-30T06:53:50.106Z,38.59
2022-07-30T06:55:21.499Z,35.74
2022-07-30T06:56:52.824Z,37.70
2022-07-30T06:58:25.655Z,41.00
2022-07-30T06:59:57.716Z,40.58
2022-07-30T07:01:29.395Z,41.15
2022-07-30T07:03:00.910Z,39.33
2022-07-30T07:04:32.376Z,38.55
2022-07-30T07:06:03.957Z,40.50
2022-07-30T07:07:41.729Z,44.39
2022-07-30T07:09:15.702Z,44.48
2022-07-30T07:10:47.054Z,50.35
2022-07-30T07:12:18.597Z,50.54
2022-07-30T07:13:50.176Z,53.80
2022-07-30T07:15:30.963Z,51.69
2022-07-30T07:17:13.623Z,53.43
2022-07-30T07:18:45.285Z,50.16
2022-07-30T07:20:22.814Z,51.37
2022-07-30T07:21:54.268Z,51.92
2022-07-30T07:23:25.970Z,56.78
2022-07-30T07:25:12.919Z,58.48
2022-07-30T07:26:44.299Z,51.99
2022-07-30T07:28:15.896Z,53.97
2022-07-30T07:30:04.430Z,52.80
2022-07-30T07:32:07.000Z,54.78
2022-07-30T07:33:39.441Z,55.43
2022-07-30T07:35:10.769Z,55.39
2022-07-30T07:36:42.151Z,56.40
2022-07-30T07:38:13.683Z,59.45
2022-07-30T07:39:45.054Z,65.01
2022-07-30T07:41:16.503Z,62.97
2022-07-30T07:42:47.948Z,61.80
2022-07-30T07:44:19.384Z,63.55
2022-07-30T07:45:50.903Z,64.43
2022-07-30T07:47:22.383Z,68.66
2022-07-30T07:48:53.828Z,67.62
2022-07-30T07:50:25.579Z,68.51
2022-07-30T07:51:57.192Z,66.97
2022-07-30T07:53:28.611Z,67.99
2022-07-30T07:55:00.394Z,63.22
2022-07-30T07:56:34.217Z,63.18
2022-07-30T07:58:08.269Z,63.90
2022-07-30T07:59:40.866Z,59.99
2022-07-30T08:01:13.178Z,61.15
2022-07-30T08:02:44.709Z,60.29
2022-07-30T08:04:16.295Z,62.64
2022-07-30T08:06:00.758Z,64.69
2022-07-30T08:07:38.337Z,61.01
2022-07-30T08:09:09.839Z,62.71
2022-07-30T08:10:41.209Z,62.50
2022-07-30T08:12:12.627Z,62.86
2022-07-30T08:13:51.521Z,59.83
2022-07-30T08:15:24.152Z,58.78
2022-07-30T08:16:55.566Z,55.37
2022-07-30T08:18:27.180Z,54.64
2022-07-30T08:19:58.786Z,51.63
2022-07-30T08:21:30.414Z,52.09
2022-07-30T08:23:02.016Z,48.73
2022-07-30T08:24:33.456Z,49.47
2022-07-30T08:26:05.022Z,46.67
2022-07-30T08:27:36.591Z,47.09
2022-07-30T08:29:08.338Z,43.90
2022-07-30T08:30:45.178Z,45.72
2022-07-30T08:32:16.643Z,43.17
2022-07-30T08:33:53.159Z,44.90
2022-07-30T08:35:24.692Z,42.81
2022-07-30T08:36:56.132Z,45.46
2022-07-30T08:38:27.472Z,48.88
2022-07-30T08:39:59.099Z,47.29
2022-07-30T08:41:35.662Z,48.44
2022-07-30T08:43:07.342Z,52.39
2022-07-30T08:44:38.762Z,54.46
2022-07-30T08:46:10.462Z,52.63
2022-07-30T08:47:42.288Z,53.53
2022-07-30T08:49:13.639Z,50.66
2022-07-30T08:50:45.124Z,49.35
2022-07-30T08:52:16.677Z,48.12
2022-07-30T08:53:48.080Z,50.13
2022-07-30T08:55:19.543Z,49.35
2022-07-30T08:56:51.279Z,50.31
2022-07-30T08:58:22.689Z,51.58
2022-07-30T09:00:01.153Z,52.03
2022-07-30T09:01:33.317Z,54.06
2022-07-30T09:03:04.829Z,52.34
2022-07-30T09:04:36.294Z,56.53
2022-07-30T09:06:07.714Z,54.27
2022-07-30T09:07:44.098Z,51.18
2022-07-30T09:09:15.568Z,51.14
2022-07-30T09:10:52.978Z,48.55
2022-07-30T09:12:24.962Z,49.47
2022-07-30T09:13:56.420Z,51.79
2022-07-30T09:15:27.956Z,49.00
2022-07-30T09:17:00.012Z,49.30
2022-07-30T09:18:31.840Z,45.64
2022-07-30T09:20:08.312Z,48.72
2022-07-30T09:21:39.806Z,54.00
2022-07-30T09:23:11.648Z,45.45
2022-07-30T09:24:43.197Z,41.58
2022-07-30T09:26:14.743Z,38.89
2022-07-30T09:27:46.126Z,42.55
2022-07-30T09:29:17.679Z,43.77
2022-07-30T09:30:50.310Z,43.93
2022-07-30T09:32:21.717Z,45.95
2022-07-30T09:33:53.220Z,38.01
2022-07-30T09:35:29.665Z,38.00
2022-07-30T09:37:01.228Z,40.39
2022-07-30T09:38:32.776Z,33.85
2022-07-30T09:40:04.230Z,31.62
2022-07-30T09:41:39.132Z,30.01
2022-07-30T09:43:10.897Z,30.55
2022-07-30T09:44:42.289Z,32.20
2022-07-30T09:46:13.707Z,27.60
2022-07-30T09:47:45.308Z,28.41
2022-07-30T09:49:16.939Z,29.43
2022-07-30T09:50:50.036Z,27.14
2022-07-30T09:52:21.785Z,28.71
2022-07-30T09:54:00.527Z,24.94
2022-07-30T09:55:32.096Z,31.83
2022-07-30T09:57:04.824Z,30.39
2022-07-30T09:58:36.371Z,33.38
2022-07-30T10:00:07.808Z,34.62
2022-07-30T10:01:49.492Z,34.47
2022-07-30T10:03:41.616Z,32.26
2022-07-30T10:05:14.196Z,29.53
2022-07-30T10:06:46.263Z,29.05
2022-07-30T10:08:18.929Z,33.49
2022-07-30T10:09:50.802Z,32.37
2022-07-30T10:11:23.941Z,28.57
2022-07-30T10:12:55.638Z,28.93
2022-07-30T10:14:31.346Z,28.88
2022-07-30T10:16:03.703Z,26.25
2022-07-30T10:17:35.531Z,27.66
2022-07-30T10:19:07.227Z,26.91
2022-07-30T10:20:49.371Z,27.19
2022-07-30T10:22:20.760Z,28.44
2022-07-30T10:23:53.567Z,29.30
2022-07-30T10:25:27.691Z,26.75
2022-07-30T10:27:00.354Z,27.08
2022-07-30T10:28:35.818Z,31.98
2022-07-30T10:30:13.670Z,33.22
2022-07-30T10:31:46.823Z,33.43
2022-07-30T10:33:34.821Z,31.37
2022-07-30T10:35:08.151Z,30.48
2022-07-30T10:36:39.887Z,29.94
2022-07-30T10:38:13.981Z,31.67
2022-07-30T10:39:50.885Z,32.63
2022-07-30T10:41:44.271Z,32.20
2022-07-30T10:43:19.765Z,31.42
2022-07-30T10:44:51.828Z,29.65
2022-07-30T10:46:23.296Z,28.15
2022-07-30T10:47:59.786Z,28.80
2022-07-30T10:49:36.712Z,30.85
2022-07-30T10:51:25.612Z,32.50
2022-07-30T10:53:06.187Z,31.06
2022-07-30T10:54:39.805Z,26.18
2022-07-30T10:56:11.476Z,24.06
2022-07-30T10:57:42.937Z,26.04
2022-07-30T10:59:16.028Z,23.24
2022-07-30T11:00:47.691Z,23.75
2022-07-30T11:02:19.707Z,20.59
2022-07-30T11:03:51.468Z,24.92
2022-07-30T11:05:27.287Z,21.31
2022-07-30T11:07:17.439Z,18.24
2022-07-30T11:08:49.082Z,18.13
2022-07-30T11:10:20.721Z,18.15
2022-07-30T11:12:00.993Z,19.23
2022-07-30T11:13:38.372Z,19.14
2022-07-30T11:15:19.178Z,16.12
2022-07-30T11:16:51.409Z,16.14
2022-07-30T11:18:25.016Z,15.16
2022-07-30T11:20:01.873Z,16.88
2022-07-30T11:21:34.094Z,12.83
2022-07-30T11:23:05.696Z,14.52
2022-07-30T11:24:38.018Z,11.16
2022-07-30T11:26:14.482Z,11.66
2022-07-30T11:27:46.191Z,11.99
2022-07-30T11:29:17.872Z,12.95
2022-07-30T11:31:10.099Z,10.26
2022-07-30T11:32:42.267Z,10.30
2022-07-30T11:34:18.905Z,10.95
2022-07-30T11:36:07.172Z,12.00
2022-07-30T11:37:51.927Z,10.07
2022-07-30T11:39:29.788Z,9.40
2022-07-30T11:41:10.241Z,8.93
2022-07-30T11:42:42.556Z,8.58
2022-07-30T11:44:14.337Z,8.06
2022-07-30T11:45:46.574Z,9.17
2022-07-30T11:47:18.180Z,8.34
2022-07-30T11:48:49.890Z,8.80
2022-07-30T11:50:23.709Z,9.05
2022-07-30T11:51:55.460Z,9.10
2022-07-30T11:53:26.979Z,8.78
2022-07-30T11:54:58.898Z,7.74
2022-07-30T11:56:30.463Z,6.83
2022-07-30T11:58:02.337Z,8.50
2022-07-30T11:59:34.003Z,10.22
2022-07-30T12:01:09.114Z,9.42
2022-07-30T12:02:41.384Z,8.40
2022-07-30T12:04:13.115Z,9.34
2022-07-30T12:05:45.088Z,9.79
2022-07-30T12:07:22.857Z,6.68
2022-07-30T12:08:58.446Z,7.55
2022-07-30T12:10:30.417Z,7.61
2022-07-30T12:12:02.584Z,8.17
2022-07-30T12:13:43.871Z,8.97
2022-07-30T12:15:17.620Z,8.45
2022-07-30T12:16:49.140Z,7.83
2022-07-30T12:18:26.672Z,7.88
2022-07-30T12:19:58.855Z,8.89
2022-07-30T12:21:30.596Z,8.67
2022-07-30T12:23:02.311Z,7.02
2022-07-30T12:24:34.458Z,6.71
2022-07-30T12:26:06.120Z,8.04
2022-07-30T12:27:37.845Z,7.24
2022-07-30T12:29:09.699Z,7.27
2022-07-30T12:30:41.263Z,8.26
2022-07-30T12:32:13.226Z,8.23
2022-07-30T12:33:44.919Z,6.68
2022-07-30T12:35:17.326Z,6.84
2022-07-30T12:36:50.088Z,5.71
2022-07-30T12:38:21.921Z,8.04
2022-07-30T12:39:53.816Z,7.38
2022-07-30T12:41:25.455Z,5.25
2022-07-30T12:42:57.336Z,6.26
2022-07-30T12:44:29.157Z,5.21
2022-07-30T12:46:01.020Z,5.71
2022-07-30T12:47:32.749Z,5.49
2022-07-30T12:49:07.623Z,5.35
2022-07-30T12:50:53.375Z,5.31
2022-07-30T12:52:28.272Z,5.54
2022-07-30T12:54:00.897Z,6.63
2022-07-30T12:55:37.769Z,5.92
2022-07-30T12:57:09.761Z,6.14
2022-07-30T12:58:41.924Z,6.38
2022-07-30T13:00:13.799Z,4.53
2022-07-30T13:01:45.435Z,5.97
2022-07-30T13:03:17.274Z,5.09
2022-07-30T13:05:03.165Z,5.57
2022-07-30T13:06:42.997Z,6.95
2022-07-30T13:08:14.740Z,8.46
2022-07-30T13:09:46.604Z,5.55
2022-07-30T13:11:19.119Z,5.09
2022-07-30T13:12:50.700Z,6.86
2022-07-30T13:14:23.575Z,7.79
2022-07-30T13:15:57.974Z,7.28
2022-07-30T13:17:29.829Z,7.46
2022-07-30T13:19:01.412Z,7.36
2022-07-30T13:20:33.025Z,6.64
2022-07-30T13:22:04.731Z,5.53
2022-07-30T13:23:36.563Z,4.51
2022-07-30T13:25:08.865Z,7.11
2022-07-30T13:26:40.505Z,5.35
2022-07-30T13:28:12.329Z,7.52
2022-07-30T13:29:44.110Z,7.15
2022-07-30T13:31:16.097Z,7.77
2022-07-30T13:32:47.708Z,6.55
2022-07-30T13:34:19.341Z,5.78
2022-07-30T13:35:50.968Z,6.02
2022-07-30T13:37:23.702Z,8.41
2022-07-30T13:39:09.912Z,5.60
2022-07-30T13:40:41.531Z,5.99
2022-07-30T13:42:13.306Z,7.40
2022-07-30T13:43:44.938Z,5.60
2022-07-30T13:45:21.740Z,5.78
2022-07-30T13:46:53.395Z,7.13
2022-07-30T13:48:25.104Z,8.26
2022-07-30T13:50:01.733Z,6.22
2022-07-30T13:51:33.419Z,5.57
2022-07-30T13:53:10.081Z,6.32
2022-07-30T13:54:41.649Z,5.04
2022-07-30T13:56:13.320Z,7.55
2022-07-30T13:57:48.452Z,6.25
2022-07-30T13:59:20.262Z,7.72
2022-07-30T14:00:52.117Z,7.34
2022-07-30T14:02:23.729Z,6.19
2022-07-30T14:03:55.450Z,4.31
2022-07-30T14:05:26.992Z,6.11
2022-07-30T14:06:58.742Z,6.53
2022-07-30T14:08:30.444Z,6.09
2022-07-30T14:10:02.152Z,4.43
2022-07-30T14:11:33.746Z,5.16
2022-07-30T14:13:05.374Z,3.76
2022-07-30T14:14:37.053Z,5.46
2022-07-30T14:16:28.430Z,4.98
2022-07-30T14:18:07.298Z,3.48
2022-07-30T14:19:39.009Z,3.95
2022-07-30T14:21:10.779Z,4.76
2022-07-30T14:22:42.377Z,3.59
2022-07-30T14:24:13.870Z,3.97
2022-07-30T14:25:45.460Z,3.95
2022-07-30T14:27:22.328Z,5.51
2022-07-30T14:28:54.031Z,4.32
2022-07-30T14:30:30.562Z,4.41
2022-07-30T14:32:02.359Z,3.68
2022-07-30T14:33:33.913Z,4.69
2022-07-30T14:35:05.412Z,4.46
2022-07-30T14:36:37.006Z,5.22
2022-07-30T14:38:08.801Z,4.04
2022-07-30T14:39:40.662Z,5.99
2022-07-30T14:41:12.428Z,4.20
2022-07-30T14:42:44.142Z,3.25
2022-07-30T14:44:16.760Z,2.75
2022-07-30T14:45:48.645Z,3.20
2022-07-30T14:47:20.382Z,3.90
2022-07-30T14:48:52.243Z,4.32
2022-07-30T14:50:23.932Z,4.49
2022-07-30T14:51:55.682Z,3.89
2022-07-30T14:53:27.499Z,2.62
2022-07-30T14:54:59.063Z,5.03
2022-07-30T14:56:30.931Z,4.47
2022-07-30T14:58:02.716Z,4.57
2022-07-30T14:59:34.716Z,4.86
2022-07-30T15:01:15.744Z,5.03
2022-07-30T15:02:48.494Z,4.16
2022-07-30T15:04:20.162Z,3.97
2022-07-30T15:05:52.467Z,4.15
2022-07-30T15:07:25.255Z,4.19
2022-07-30T15:08:56.938Z,4.47
2022-07-30T15:10:28.807Z,4.22
2022-07-30T15:12:08.731Z,2.80
2022-07-30T15:13:50.119Z,3.92
2022-07-30T15:15:22.495Z,4.38
2022-07-30T15:16:59.371Z,3.13
2022-07-30T15:18:35.195Z,4.01
2022-07-30T15:20:17.010Z,3.62
2022-07-30T15:21:48.788Z,3.32
2022-07-30T15:23:20.458Z,3.19
2022-07-30T15:24:53.351Z,3.40
2022-07-30T15:26:30.006Z,2.75
2022-07-30T15:28:01.996Z,2.86
2022-07-30T15:29:33.871Z,3.07
2022-07-30T15:31:11.130Z,2.60
2022-07-30T15:32:42.789Z,3.23
2022-07-30T15:34:14.586Z,3.61
2022-07-30T15:35:46.363Z,2.91
2022-07-30T15:37:18.050Z,3.40
2022-07-30T15:38:49.870Z,4.99
2022-07-30T15:40:23.267Z,3.54
2022-07-30T15:41:55.077Z,3.90
2022-07-30T15:43:26.730Z,3.13
2022-07-30T15:45:16.613Z,3.69
2022-07-30T15:46:49.182Z,3.46
2022-07-30T15:48:24.841Z,3.93
2022-07-30T15:49:59.061Z,2.88
2022-07-30T15:51:32.028Z,2.42
2022-07-30T15:53:06.778Z,3.72
2022-07-30T15:54:46.431Z,4.23
2022-07-30T15:56:18.048Z,3.03
2022-07-30T15:57:50.018Z,4.83
2022-07-30T15:59:21.792Z,4.27
2022-07-30T16:00:53.533Z,3.46
2022-07-30T16:02:25.251Z,2.90
2022-07-30T16:03:56.958Z,2.82
2022-07-30T16:05:28.621Z,3.25
2022-07-30T16:07:24.309Z,5.34
2022-07-30T16:08:56.189Z,3.25
2022-07-30T16:10:34.479Z,3.11
2022-07-30T16:12:06.710Z,4.16
2022-07-30T16:13:38.573Z,3.77
2022-07-30T16:15:10.374Z,3.37
2022-07-30T16:16:42.227Z,3.34
2022-07-30T16:18:14.050Z,3.11
2022-07-30T16:19:45.705Z,3.63
2022-07-30T16:21:17.483Z,3.44
2022-07-30T16:22:49.186Z,3.71
2022-07-30T16:24:21.067Z,2.43
2022-07-30T16:25:52.786Z,3.56
2022-07-30T16:27:24.418Z,3.47
2022-07-30T16:29:01.636Z,4.37
2022-07-30T16:30:36.580Z,3.63
2022-07-30T16:32:23.071Z,3.18
2022-07-30T16:34:00.763Z,4.29
2022-07-30T16:35:32.409Z,4.26
2022-07-30T16:37:05.139Z,4.78
2022-07-30T16:38:36.905Z,3.88
2022-07-30T16:40:08.697Z,5.78
2022-07-30T16:41:40.646Z,3.26
2022-07-30T16:43:12.431Z,3.65
2022-07-30T16:44:44.453Z,4.06
2022-07-30T16:46:16.220Z,3.29
2022-07-30T16:47:50.713Z,3.09
2022-07-30T16:49:22.313Z,3.28
2022-07-30T16:50:53.889Z,4.55
2022-07-30T16:52:26.806Z,4.10
2022-07-30T16:53:59.959Z,4.50
2022-07-30T16:55:31.845Z,4.80
2022-07-30T16:57:06.503Z,4.27
2022-07-30T16:58:43.132Z,5.18
2022-07-30T17:00:14.798Z,3.80
2022-07-30T17:01:46.451Z,4.00
2022-07-30T17:03:20.029Z,4.20
2022-07-30T17:04:52.146Z,3.10
2022-07-30T17:06:24.926Z,3.73
2022-07-30T17:08:01.845Z,3.78
2022-07-30T17:09:36.810Z,3.67
2022-07-30T17:11:09.811Z,4.28
2022-07-30T17:12:51.117Z,3.95
2022-07-30T17:14:23.119Z,4.32
2022-07-30T17:15:55.132Z,3.59
2022-07-30T17:17:26.835Z,3.37
2022-07-30T17:18:58.711Z,4.17
2022-07-30T17:20:30.711Z,4.60
2022-07-30T17:22:02.853Z,3.74
2022-07-30T17:23:34.710Z,3.27
2022-07-30T17:25:06.505Z,3.29
2022-07-30T17:26:38.265Z,4.51
2022-07-30T17:28:09.982Z,3.21
2022-07-30T17:29:49.625Z,4.27
2022-07-30T17:31:22.035Z,4.53
2022-07-30T17:32:53.676Z,3.81
2022-07-30T17:34:25.368Z,3.45
2022-07-30T17:35:56.921Z,3.98
2022-07-30T17:37:28.561Z,4.22
2022-07-30T17:39:00.086Z,5.09
2022-07-30T17:40:32.085Z,3.81
2022-07-30T17:42:04.010Z,2.92
2022-07-30T17:43:36.022Z,4.07
2022-07-30T17:45:07.755Z,4.11
2022-07-30T17:46:39.321Z,3.52
2022-07-30T17:48:11.803Z,5.45
2022-07-30T17:49:43.383Z,7.78
2022-07-30T17:51:14.931Z,4.68
2022-07-30T17:52:46.452Z,5.83
2022-07-30T17:54:18.001Z,4.44
2022-07-30T17:55:57.323Z,5.90
2022-07-30T17:57:30.592Z,5.23
2022-07-30T17:59:02.444Z,6.43
2022-07-30T18:00:34.009Z,4.40
2022-07-30T18:02:06.256Z,4.33
2022-07-30T18:03:38.017Z,4.45
2022-07-30T18:05:16.795Z,5.12
2022-07-30T18:06:49.546Z,3.98
2022-07-30T18:08:21.083Z,4.04
2022-07-30T18:09:53.338Z,3.18
2022-07-30T18:11:24.865Z,3.36
2022-07-30T18:13:27.223Z,4.48
2022-07-30T18:14:59.009Z,3.13
2022-07-30T18:16:30.491Z,2.98
2022-07-30T18:18:02.053Z,3.44
2022-07-30T18:19:33.571Z,5.06
2022-07-30T18:21:05.302Z,3.82
2022-07-30T18:22:36.781Z,3.66
2022-07-30T18:24:08.247Z,3.08
2022-07-30T18:25:51.270Z,3.99
2022-07-30T18:27:24.501Z,3.55
2022-07-30T18:28:56.033Z,3.95
2022-07-30T18:30:32.622Z,4.94
2022-07-30T18:32:06.640Z,3.94
2022-07-30T18:33:38.368Z,6.58
2022-07-30T18:35:14.197Z,3.63
2022-07-30T18:36:46.811Z,4.23
2022-07-30T18:38:18.398Z,5.17
2022-07-30T18:39:50.598Z,4.85
2022-07-30T18:41:22.099Z,6.34
2022-07-30T18:42:53.729Z,3.59
2022-07-30T18:44:25.997Z,5.00
2022-07-30T18:45:59.040Z,5.41
2022-07-30T18:47:31.222Z,3.33
2022-07-30T18:49:15.477Z,4.18
2022-07-30T18:51:00.244Z,3.60
2022-07-30T18:52:32.359Z,4.24
2022-07-30T18:54:03.784Z,4.75
2022-07-30T18:55:36.339Z,5.39
2022-07-30T18:57:12.660Z,4.17
2022-07-30T18:58:45.998Z,5.61
2022-07-30T19:00:33.969Z,6.01
2022-07-30T19:02:07.215Z,4.48
2022-07-30T19:03:39.234Z,6.17
2022-07-30T19:05:11.813Z,4.72
2022-07-30T19:06:43.594Z,4.03
2022-07-30T19:08:20.520Z,5.95
2022-07-30T19:09:53.375Z,4.65
2022-07-30T19:11:25.096Z,3.81
2022-07-30T19:12:56.528Z,4.20
2022-07-30T19:14:33.358Z,3.72
2022-07-30T19:16:06.825Z,4.40
2022-07-30T19:17:46.125Z,4.21
2022-07-30T19:19:18.386Z,6.31
2022-07-30T19:20:50.850Z,7.79
2022-07-30T19:22:29.534Z,4.20
2022-07-30T19:24:01.721Z,4.61
2022-07-30T19:25:34.265Z,4.29
2022-07-30T19:27:05.920Z,4.80
2022-07-30T19:28:37.497Z,4.58
2022-07-30T19:30:08.980Z,4.83
2022-07-30T19:31:40.479Z,4.68
2022-07-30T19:33:15.185Z,3.40
2022-07-30T19:34:47.352Z,4.88
2022-07-30T19:36:18.887Z,6.42
2022-07-30T19:37:50.480Z,6.89
2022-07-30T19:39:22.368Z,6.79
2022-07-30T19:40:54.328Z,4.62
2022-07-30T19:42:31.017Z,4.74
2022-07-30T19:44:05.804Z,4.61
2022-07-30T19:45:47.212Z,6.25
2022-07-30T19:47:20.371Z,5.50
2022-07-30T19:48:55.706Z,8.18
2022-07-30T19:50:27.616Z,5.30
2022-07-30T19:52:09.955Z,6.20
2022-07-30T19:53:54.747Z,4.35
2022-07-30T19:55:35.010Z,3.76
2022-07-30T19:57:07.633Z,5.33
2022-07-30T19:58:40.298Z,5.49
2022-07-30T20:00:12.501Z,3.21
2022-07-30T20:01:45.281Z,4.73
2022-07-30T20:03:26.019Z,3.39
2022-07-30T20:05:06.015Z,3.41
2022-07-30T20:06:37.862Z,4.05
2022-07-30T20:08:10.545Z,3.03
2022-07-30T20:09:43.234Z,6.08
2022-07-30T20:11:20.924Z,5.02
2022-07-30T20:13:07.111Z,3.80
2022-07-30T20:14:43.364Z,3.67
2022-07-30T20:16:15.187Z,3.54
2022-07-30T20:17:46.711Z,3.92
2022-07-30T20:19:18.584Z,3.77